Terminal Aerodrome Forecast
Issued by NWS Mt. Holly, NJ

Home | Current Version | Previous Version | Text Only | Print | Product List | Glossary On
Versions: 1 2 3 4 5 6 7 8 9 10 11 12 13 14 15 16 17 18 19 20
000
FTUS41 KPHI 190124 AAA
TAFTTN
TAF AMD
KTTN 190124Z 1901/1924 VRB03KT P6SM SCT015 SCT100
     FM190400 VRB03KT 6SM BR SCT015
      TEMPO 1905/1908 3SM BR BKN015
     FM190800 VRB02KT 3SM BR OVC010
     FM191200 33004KT P6SM SCT015
     FM191500 33006KT P6SM FEW040
     FM191800 29006KT P6SM SCT050=

USA.gov is the U.S. government's official web portal to all federal, state and local government web resources and services.